Time;durP1;ratioP1;P1;durP2;ratioP2;P2;SDS_P1;SDS_P2;PMS_P1;PMS_P2;Temp;Humidity;BMP_temperature;BMP_pressure;BME280_temperature;BME280_humidity;BME280_pressure;Samples;Min_cycle;Max_cycle;Signal;HPM_P1;HPM_P2
2022/09/30 00:09:51;;;;;;;20.02;10.43;;;12.90;69.30;;;;;;7267350;19;19922;-94
2022/09/30 00:12:20;;;;;;;29.40;10.68;;;12.90;69.10;;;;;;7390896;19;20039;-93
2022/09/30 00:14:49;;;;;;;19.58;9.75;;;12.90;69.30;;;;;;7428500;19;20014;-94
2022/09/30 00:25:07;;;;;;;16.67;9.25;;;12.90;68.70;;;;;;7244280;19;20031;-91
2022/09/30 00:27:36;;;;;;;19.33;10.98;;;12.90;68.80;;;;;;7404668;19;20102;-92
2022/09/30 00:30:05;;;;;;;22.10;9.20;;;12.90;68.80;;;;;;7396326;19;20014;-94
2022/09/30 00:32:34;;;;;;;19.92;10.20;;;13.00;69.00;;;;;;7417326;19;20019;-93
2022/09/30 00:45:23;;;;;;;25.52;10.40;;;13.10;68.30;;;;;;7363053;19;20043;-92
2022/09/30 00:50:41;;;;;;;23.33;10.63;;;13.10;68.10;;;;;;7410930;19;20018;-93
2022/09/30 00:53:19;;;;;;;20.77;9.50;;;13.10;67.90;;;;;;7409612;19;20093;-93
2022/09/30 00:55:56;;;;;;;20.02;9.68;;;13.10;67.80;;;;;;7407902;19;20022;-92
2022/09/30 00:58:29;;;;;;;22.80;10.00;;;13.00;67.50;;;;;;7408381;19;20014;-93
2022/09/30 01:01:06;;;;;;;20.42;10.52;;;13.00;67.60;;;;;;7378199;19;20011;-91
2022/09/30 01:03:40;;;;;;;22.33;9.68;;;13.00;67.60;;;;;;7398387;19;20014;-93
2022/09/30 01:06:09;;;;;;;26.98;10.75;;;13.00;67.70;;;;;;7405918;19;20010;-92
2022/09/30 01:13:50;;;;;;;20.02;10.52;;;12.90;68.00;;;;;;7410598;19;20002;-92
2022/09/30 01:19:10;;;;;;;23.55;10.50;;;12.90;67.80;;;;;;7371535;19;21379;-91
2022/09/30 01:24:41;;;;;;;;;;;12.80;68.00;;;;;;7379188;19;20007;-90
2022/09/30 01:37:52;;;;;;;21.88;10.55;;;12.80;67.30;;;;;;7391922;19;19999;-91
2022/09/30 01:45:36;;;;;;;22.02;9.60;;;12.80;67.50;;;;;;7382049;19;20019;-90
2022/09/30 02:01:15;;;;;;;19.73;9.52;;;12.70;66.90;;;;;;7258990;19;20010;-90
2022/09/30 02:03:54;;;;;;;17.38;9.75;;;12.60;67.20;;;;;;7305833;19;20007;-91
2022/09/30 02:34:54;;;;;;;17.80;8.95;;;12.50;67.10;;;;;;7310597;19;20039;-90
2022/09/30 02:42:32;;;;;;;19.52;8.27;;;12.50;65.80;;;;;;7344886;19;21474;-93
2022/09/30 02:47:51;;;;;;;18.58;8.85;;;12.50;66.60;;;;;;7398992;19;20011;-94
2022/09/30 02:50:29;;;;;;;16.80;8.43;;;12.50;66.50;;;;;;7383262;19;20028;-94
2022/09/30 02:53:08;;;;;;;15.90;8.75;;;12.50;66.50;;;;;;7406364;19;20010;-94
2022/09/30 02:55:49;;;;;;;22.27;8.77;;;12.40;67.20;;;;;;7405128;19;20015;-94
2022/09/30 02:58:21;;;;;;;18.00;9.30;;;12.50;66.60;;;;;;7401249;19;20007;-94
2022/09/30 03:00:50;;;;;;;22.02;8.90;;;12.50;66.60;;;;;;7402308;19;20051;-95
2022/09/30 03:03:24;;;;;;;16.45;8.85;;;12.40;66.60;;;;;;7405714;19;20053;-94
2022/09/30 03:05:57;;;;;;;17.05;9.20;;;12.40;66.60;;;;;;7423216;19;20035;-94
2022/09/30 03:08:26;;;;;;;16.73;8.40;;;12.30;66.70;;;;;;7405341;19;20007;-94
2022/09/30 03:10:55;;;;;;;16.13;9.00;;;12.30;66.90;;;;;;7406337;19;20027;-94
2022/09/30 03:13:45;;;;;;;21.45;8.95;;;12.30;67.00;;;;;;7401944;19;20014;-94
2022/09/30 03:16:23;;;;;;;18.52;9.18;;;12.30;66.60;;;;;;7402702;19;20118;-95
2022/09/30 03:19:06;;;;;;;23.30;9.85;;;12.20;66.40;;;;;;7403005;19;20006;-93
2022/09/30 03:21:52;;;;;;;16.08;9.18;;;12.10;66.60;;;;;;7402309;19;20011;-93
2022/09/30 03:35:02;;;;;;;16.38;9.57;;;12.10;67.20;;;;;;7287264;19;20977;-93
2022/09/30 03:37:44;;;;;;;24.38;9.68;;;12.00;67.50;;;;;;7408512;19;20038;-93
2022/09/30 03:40:20;;;;;;;34.42;9.73;;;11.90;67.70;;;;;;7350464;19;20003;-91
2022/09/30 03:42:54;;;;;;;14.23;8.77;;;11.90;67.70;;;;;;7412962;19;20006;-96
2022/09/30 03:50:46;;;;;;;19.50;9.60;;;11.70;68.20;;;;;;7236948;19;20398;-94
2022/09/30 05:18:45;;;;;;;17.42;8.18;;;11.60;69.00;;;;;;7348040;19;19991;-89
2022/09/30 05:21:16;;;;;;;16.90;8.77;;;11.60;69.00;;;;;;7409677;19;20009;-94
2022/09/30 05:23:45;;;;;;;18.77;9.00;;;11.60;68.80;;;;;;7431451;19;20002;-95
2022/09/30 05:31:25;;;;;;;20.25;8.35;;;11.50;68.80;;;;;;7373352;19;20010;-92
2022/09/30 05:33:57;;;;;;;19.92;8.68;;;11.60;68.90;;;;;;7407329;19;20035;-93
2022/09/30 05:36:26;;;;;;;;;;;11.60;68.80;;;;;;7402632;19;20028;-92
2022/09/30 05:38:56;;;;;;;17.60;8.50;;;11.60;68.70;;;;;;7430230;19;19919;-92
2022/09/30 05:41:25;;;;;;;23.27;9.13;;;11.60;68.50;;;;;;7404777;19;20022;-91
2022/09/30 05:43:53;;;;;;;22.20;9.13;;;11.60;68.40;;;;;;7382136;19;20022;-91
2022/09/30 05:46:24;;;;;;;17.85;8.40;;;11.50;68.40;;;;;;7406809;19;20035;-93
2022/09/30 05:51:30;;;;;;;15.30;7.97;;;11.50;68.60;;;;;;7289845;19;20021;-94
2022/09/30 05:56:37;;;;;;;20.08;9.23;;;11.50;68.60;;;;;;7311977;19;20007;-94
2022/09/30 06:01:41;;;;;;;19.25;9.52;;;11.40;68.40;;;;;;7382423;19;20038;-92
2022/09/30 06:04:09;;;;;;;19.95;9.63;;;11.40;68.70;;;;;;7403653;19;20035;-93
2022/09/30 06:06:41;;;;;;;18.00;9.80;;;11.40;69.00;;;;;;7394263;19;20014;-93
2022/09/30 06:09:10;;;;;;;20.95;9.30;;;11.40;69.30;;;;;;7388434;19;20031;-91
2022/09/30 06:11:41;;;;;;;25.27;10.05;;;11.50;69.60;;;;;;7406774;19;20042;-92
2022/09/30 06:14:10;;;;;;;19.63;10.05;;;11.60;69.40;;;;;;7393675;19;20025;-92
2022/09/30 06:16:41;;;;;;;21.00;9.70;;;11.60;69.00;;;;;;7395576;19;20022;-92
2022/09/30 06:19:13;;;;;;;20.65;9.25;;;11.70;68.70;;;;;;7394304;19;20027;-93
2022/09/30 06:21:45;;;;;;;20.17;9.10;;;11.70;68.70;;;;;;7390311;19;20019;-92
2022/09/30 06:24:14;;;;;;;15.15;8.75;;;11.80;68.60;;;;;;7391304;19;20014;-91
2022/09/30 06:44:54;;;;;;;21.30;10.18;;;12.00;68.90;;;;;;7386945;19;20012;-90
2022/09/30 07:00:42;;;;;;;20.27;11.18;;;12.20;69.60;;;;;;7279095;19;20019;-84
2022/09/30 07:03:24;;;;;;;18.38;11.02;;;12.10;69.70;;;;;;7391078;19;20018;-90
2022/09/30 07:05:59;;;;;;;26.20;11.10;;;12.20;70.00;;;;;;7412766;19;20019;-84
2022/09/30 07:08:31;;;;;;;45.40;19.95;;;12.20;70.10;;;;;;7402184;19;20019;-85
2022/09/30 07:11:00;;;;;;;28.13;14.15;;;12.30;70.20;;;;;;7396113;19;20051;-89
2022/09/30 07:21:24;;;;;;;26.08;13.98;;;12.40;70.80;;;;;;7261949;19;20099;-88
2022/09/30 07:23:57;;;;;;;19.10;11.30;;;12.40;71.00;;;;;;7424811;19;20044;-89
2022/09/30 07:26:27;;;;;;;23.83;10.68;;;12.50;71.40;;;;;;7399674;19;20023;-88
2022/09/30 07:28:56;;;;;;;29.05;12.40;;;12.60;71.50;;;;;;7390687;19;20039;-89
2022/09/30 07:31:28;;;;;;;22.55;12.73;;;12.60;72.40;;;;;;7398541;19;20011;-91
2022/09/30 07:33:58;;;;;;;29.40;13.10;;;12.60;71.50;;;;;;7397971;19;20006;-90
2022/09/30 07:41:40;;;;;;;26.50;12.32;;;12.90;71.80;;;;;;7328994;19;21184;-89
2022/09/30 07:57:09;;;;;;;45.13;14.32;;;13.20;73.00;;;;;;7265530;19;19931;-88
2022/09/30 07:59:39;;;;;;;24.35;13.73;;;13.20;72.30;;;;;;7267384;19;21130;-87
2022/09/30 08:07:20;;;;;;;32.80;14.32;;;13.40;72.90;;;;;;7381373;19;20045;-90
2022/09/30 08:09:49;;;;;;;28.38;14.55;;;13.40;72.70;;;;;;7358919;19;20010;-90
2022/09/30 08:14:57;;;;;;;22.20;13.77;;;13.50;73.10;;;;;;7268928;19;20318;-89
2022/09/30 08:17:26;;;;;;;25.35;14.15;;;13.60;73.10;;;;;;7285886;19;20209;-90
2022/09/30 08:27:41;;;;;;;31.75;14.48;;;13.80;73.50;;;;;;7408922;19;20042;-90
2022/09/30 09:00:30;;;;;;;31.80;17.85;;;14.40;75.20;;;;;;7234338;19;20324;-88
2022/09/30 09:24:21;;;;;;;25.42;14.23;;;14.70;75.50;;;;;;5767658;18;3006244;-91
2022/09/30 09:26:51;;;;;;;21.77;11.45;;;15.00;73.20;;;;;;7379228;19;21562;-88
2022/09/30 09:29:34;;;;;;;15.30;9.07;;;15.00;71.60;;;;;;7435121;19;20055;-91
2022/09/30 09:32:04;;;;;;;19.50;9.43;;;14.80;69.40;;;;;;7428481;19;20018;-91
2022/09/30 09:34:33;;;;;;;25.58;9.88;;;14.90;68.90;;;;;;7432431;19;20018;-91
2022/09/30 09:42:42;;;;;;;14.43;8.27;;;14.80;68.10;;;;;;7307375;19;19998;-91
2022/09/30 10:03:29;;;;;;;13.38;6.82;;;15.20;63.90;;;;;;7345605;19;20402;-90
2022/09/30 10:24:21;;;;;;;11.05;4.78;;;15.50;63.60;;;;;;7325141;19;20271;-88
2022/09/30 10:31:59;;;;;;;26.13;13.82;;;15.60;62.50;;;;;;7386033;19;20601;-86
2022/09/30 10:34:31;;;;;;;20.88;10.95;;;15.60;60.80;;;;;;7349663;19;20039;-84
2022/09/30 10:37:03;;;;;;;16.15;7.07;;;15.50;60.20;;;;;;7393128;19;20014;-84
2022/09/30 10:39:37;;;;;;;9.18;5.68;;;15.50;61.00;;;;;;7388083;19;20093;-83
2022/09/30 10:42:11;;;;;;;10.00;4.18;;;15.60;61.50;;;;;;7378085;19;20035;-83
2022/09/30 10:44:45;;;;;;;6.22;3.20;;;15.60;60.30;;;;;;7404264;19;20058;-84
2022/09/30 10:47:21;;;;;;;10.60;3.50;;;15.70;59.80;;;;;;7386432;19;20402;-91
2022/09/30 10:55:03;;;;;;;3.72;2.35;;;15.80;58.70;;;;;;7385773;19;20018;-90
2022/09/30 10:57:35;;;;;;;7.25;2.88;;;15.80;58.60;;;;;;7390747;19;20035;-89
2022/09/30 11:00:07;;;;;;;6.00;3.30;;;15.80;58.80;;;;;;7388164;19;20015;-88
2022/09/30 11:02:43;;;;;;;11.52;3.22;;;15.70;58.90;;;;;;7414487;19;20026;-85
2022/09/30 11:06:06;;;;;;;;;;;;;;;;;;;;;
2022/09/30 11:08:40;;;;;;;7.32;3.05;;;15.90;59.70;;;;;;7400950;19;20781;-87
2022/09/30 18:15:39;;;;;;;4.38;2.85;;;17.20;58.60;;;;;;7403511;19;20031;-81
2022/09/30 18:18:16;;;;;;;5.75;2.40;;;17.10;58.90;;;;;;7383490;19;20397;-84
2022/09/30 18:21:27;;;;;;;4.57;2.80;;;17.10;58.80;;;;;;7394792;19;20010;-89
2022/09/30 18:34:12;;;;;;;5.50;2.30;;;17.10;59.00;;;;;;7320622;19;20006;-87
2022/09/30 18:36:43;;;;;;;3.00;2.20;;;17.10;59.10;;;;;;7409957;19;20034;-87
2022/09/30 18:39:22;;;;;;;4.43;2.22;;;17.00;59.30;;;;;;7386502;19;20440;-88
2022/09/30 18:42:19;;;;;;;3.08;2.20;;;17.10;59.40;;;;;;7391872;19;20046;-88
2022/09/30 18:45:24;;;;;;;5.60;2.30;;;17.10;59.50;;;;;;7354944;19;20029;-88
2022/09/30 18:50:55;;;;;;;4.38;2.55;;;17.00;59.70;;;;;;7389271;19;20321;-88
2022/09/30 18:53:30;;;;;;;4.82;2.50;;;17.00;59.70;;;;;;7391087;19;20042;-86
2022/09/30 18:56:03;;;;;;;6.03;2.42;;;17.00;59.80;;;;;;7390526;19;20038;-86
2022/09/30 18:58:32;;;;;;;6.45;2.35;;;17.00;59.70;;;;;;7392402;19;20062;-88
2022/09/30 19:01:04;;;;;;;5.03;2.50;;;17.10;59.60;;;;;;7387876;19;20011;-86
2022/09/30 19:03:35;;;;;;;4.53;2.65;;;17.10;59.70;;;;;;7408103;19;20328;-87
2022/09/30 19:06:14;;;;;;;5.13;2.38;;;17.10;59.60;;;;;;7388179;19;20022;-86
2022/09/30 19:08:49;;;;;;;4.38;2.50;;;17.10;59.70;;;;;;7386073;19;20031;-86
2022/09/30 19:11:18;;;;;;;3.55;2.60;;;17.20;59.70;;;;;;7385683;19;20021;-86
2022/09/30 19:13:50;;;;;;;4.60;2.30;;;17.10;59.80;;;;;;7382448;19;20425;-87
2022/09/30 19:16:28;;;;;;;2.72;2.10;;;17.10;59.90;;;;;;7382638;19;20014;-87
2022/09/30 19:19:17;;;;;;;5.10;2.25;;;17.00;59.40;;;;;;7393910;19;20035;-87
2022/09/30 19:32:43;;;;;;;6.43;2.85;;;16.90;60.80;;;;;;7390651;19;20010;-89
2022/09/30 19:35:13;;;;;;;5.95;3.10;;;17.00;61.00;;;;;;7387001;19;20011;-89
2022/09/30 19:38:02;;;;;;;3.67;2.58;;;17.00;61.40;;;;;;7383472;19;20098;-90
2022/09/30 19:40:31;;;;;;;5.13;2.45;;;17.00;60.70;;;;;;7384755;19;20007;-89
2022/09/30 19:43:00;;;;;;;8.15;2.53;;;17.00;60.40;;;;;;7385229;19;20046;-89
2022/09/30 19:45:31;;;;;;;4.03;2.30;;;16.80;60.80;;;;;;7414955;19;20015;-90
2022/09/30 19:48:01;;;;;;;3.38;2.20;;;16.80;60.70;;;;;;7390729;19;20054;-89
2022/09/30 19:50:33;;;;;;;4.55;2.65;;;16.90;60.70;;;;;;7383125;19;20107;-89
2022/09/30 19:53:05;;;;;;;3.58;2.40;;;17.00;60.50;;;;;;7380631;19;20021;-89
2022/09/30 19:55:35;;;;;;;5.57;2.20;;;17.00;60.20;;;;;;7383802;19;20040;-88
2022/09/30 19:58:05;;;;;;;3.17;2.25;;;17.10;60.10;;;;;;7381183;19;20018;-89
2022/09/30 20:00:34;;;;;;;3.42;2.05;;;17.10;60.10;;;;;;7406955;19;20017;-88
2022/09/30 20:03:04;;;;;;;4.90;1.90;;;17.10;60.50;;;;;;7384679;19;20040;-88
2022/09/30 20:05:33;;;;;;;5.28;2.15;;;17.10;60.80;;;;;;7394630;19;20011;-88
2022/09/30 20:08:05;;;;;;;5.70;2.58;;;17.10;61.20;;;;;;7398633;19;20025;-90
2022/09/30 20:10:35;;;;;;;4.13;2.28;;;17.00;61.40;;;;;;7399932;19;20021;-89
2022/09/30 20:13:05;;;;;;;4.63;2.58;;;17.00;61.90;;;;;;7399418;19;20014;-89
2022/09/30 20:18:16;;;;;;;4.97;2.40;;;17.00;62.50;;;;;;7402906;19;20014;-90
2022/09/30 20:20:45;;;;;;;6.97;2.20;;;17.00;63.30;;;;;;7405726;19;20018;-90
2022/09/30 20:23:18;;;;;;;9.48;2.33;;;17.00;63.50;;;;;;7404767;19;20017;-91
2022/09/30 20:25:47;;;;;;;3.97;2.20;;;17.00;64.40;;;;;;7403868;19;20011;-92
2022/09/30 20:28:16;;;;;;;6.30;2.80;;;17.00;64.70;;;;;;7403513;19;20019;-90
2022/09/30 20:30:52;;;;;;;9.40;2.25;;;17.00;65.10;;;;;;7424096;19;20030;-89
2022/09/30 20:33:23;;;;;;;4.85;2.78;;;17.00;65.70;;;;;;7402793;19;20017;-91
2022/09/30 20:35:52;;;;;;;8.30;3.00;;;17.00;66.30;;;;;;7400721;19;20023;-91
2022/09/30 20:38:25;;;;;;;4.80;2.72;;;17.00;66.60;;;;;;7398400;19;20042;-90
2022/09/30 20:40:57;;;;;;;6.00;2.63;;;16.90;67.40;;;;;;7399812;19;20014;-90
2022/09/30 20:43:28;;;;;;;4.88;2.45;;;16.90;67.50;;;;;;7405098;19;20026;-90
2022/09/30 20:46:00;;;;;;;6.82;2.60;;;16.90;66.90;;;;;;7409781;19;20007;-91
2022/09/30 20:48:30;;;;;;;6.57;2.83;;;16.90;67.10;;;;;;7430114;19;20015;-91
2022/09/30 20:50:59;;;;;;;6.07;2.63;;;16.90;67.50;;;;;;7406927;19;20022;-91
2022/09/30 20:53:30;;;;;;;4.30;2.45;;;16.80;67.40;;;;;;7406190;19;20014;-91
2022/09/30 20:56:03;;;;;;;7.05;3.15;;;16.80;67.50;;;;;;7409718;19;20035;-91
2022/09/30 20:58:32;;;;;;;5.82;2.92;;;16.80;68.30;;;;;;7407680;19;20003;-91
2022/09/30 21:42:15;;;;;;;4.40;3.10;;;16.30;71.90;;;;;;7401311;19;20042;-90
2022/09/30 21:44:44;;;;;;;7.18;3.30;;;16.30;71.50;;;;;;7399671;19;20046;-91
2022/09/30 21:47:17;;;;;;;8.95;3.20;;;16.40;71.70;;;;;;7401335;19;20244;-91
2022/09/30 21:49:52;;;;;;;5.47;3.13;;;16.30;71.30;;;;;;7402503;19;20050;-92
2022/09/30 21:55:18;;;;;;;;;;;;;;;;;;;;;
2022/09/30 23:14:42;;;;;;;8.45;2.90;;;15.70;78.70;;;;;;7387687;19;20485;-89
2022/09/30 23:17:12;;;;;;;7.10;2.83;;;15.60;78.90;;;;;;7393522;19;20011;-89
2022/09/30 23:19:54;;;;;;;9.25;3.00;;;15.60;79.70;;;;;;7389522;19;20037;-89
2022/09/30 23:22:27;;;;;;;6.97;3.03;;;15.60;79.50;;;;;;7356369;19;20044;-89
2022/09/30 23:24:57;;;;;;;5.47;3.05;;;15.70;79.50;;;;;;7408063;19;20035;-88
2022/09/30 23:27:30;;;;;;;4.95;3.28;;;15.70;79.30;;;;;;7414698;19;20033;-88
2022/09/30 23:30:02;;;;;;;6.35;2.83;;;15.60;79.50;;;;;;7401811;19;20015;-88
2022/09/30 23:32:31;;;;;;;6.28;3.08;;;15.70;79.50;;;;;;7402012;19;20061;-89
2022/09/30 23:35:01;;;;;;;5.45;3.10;;;15.50;79.10;;;;;;7391337;19;20381;-89
2022/09/30 23:37:34;;;;;;;8.25;3.30;;;15.60;79.50;;;;;;7384243;19;20022;-89
2022/09/30 23:40:04;;;;;;;7.90;3.38;;;15.60;79.70;;;;;;7380647;19;20032;-88
2022/09/30 23:42:33;;;;;;;6.68;3.00;;;15.70;79.40;;;;;;7404830;19;20040;-88
2022/09/30 23:45:05;;;;;;;7.72;3.22;;;15.70;79.50;;;;;;7382536;19;21378;-88
2022/09/30 23:47:34;;;;;;;5.15;3.47;;;15.50;79.70;;;;;;7381971;19;20018;-88
2022/09/30 23:50:03;;;;;;;9.93;3.63;;;15.70;79.80;;;;;;7382363;19;20060;-88
2022/09/30 23:52:34;;;;;;;4.28;3.10;;;15.80;79.60;;;;;;7383398;19;20026;-88
2022/09/30 23:55:03;;;;;;;7.95;3.03;;;15.70;79.20;;;;;;7382690;19;20039;-88
2022/09/30 23:57:32;;;;;;;6.55;3.45;;;15.50;80.10;;;;;;7405891;19;20010;-88
